Nearby METAR Reports

 

KTAN - Taunton, Massachusetts, USA
Distance from station: W 5mi, 8km
Updated: 12/11/2019 11:04am
Light snow, Mist, Overcast
Light snow, Mist, Overcast
 Wind from W
Wind: W 5 mph , 7 km/h
Temperature: 30°F , -1°C
Wind Chill: 25°F , -4°C
Dew Point: 27°F , -3°C
Humidity: 86%
Barometer: 30.24 inHg , 1024 hPa
Summary: Light snow, Mist
Clouds: Overcast
Visibility: 2 miles , 3 km
Cloud details: Few Clouds 700 ft
Overcast 3100 ft
2019/12/11 16:04 KTAN 111604Z AUTO 27004KT 2SM -SN BR FEW007 OVC031 M01/M03 A3024 RMK AO2 P0000 T10111033
KPYM - Plymouth, Massachusetts, USA
Distance from station: ENE 10mi, 16km
Updated: 12/11/2019 10:58am
Snow, Freezing, Fog, Overcast
Snow, Freezing, Fog, Overcast
 Wind from WNW
Wind: WNW 6 mph , 9 km/h
Temperature: 28°F , -2°C
Wind Chill: 21°F , -6°C
Dew Point: 28°F , -2°C
Humidity: 100%
Barometer: 30.23 inHg , 1023.7 hPa
Summary: Snow, Freezing, Fog
Clouds: Overcast
Visibility: 1/2 mile , 0.8 km
Cloud details: Partly cloudy 600 ft
Overcast 1000 ft
2019/12/11 15:58 KPYM 111558Z AUTO 29005KT 1/2SM SN FZFG SCT006 OVC010 M02/M02 A3023 RMK AO2 P0000 T10171022
 
KEWB - New Bedford, Massachusetts, USA
Distance from station: S 14mi, 23km
Updated: 12/11/2019 10:53am
Light snow, Mist, Overcast
Light snow, Mist, Overcast
 Wind from varies
Wind: varies 5 mph , 7 km/h
Temperature: 28°F , -2°C
Wind Chill: 22°F , -6°C
Dew Point: 27°F , -3°C
Humidity: 93%
Barometer: 30.24 inHg , 1024 hPa
Summary: Light snow, Mist
Clouds: Overcast
Visibility: 1 mile , 2 km
Cloud details: Few Clouds 700 ft
Overcast 1500 ft
2019/12/11 15:53 KEWB 111553Z VRB04KT 1SM R05/4500VP6000FT -SN BR FEW007 OVC015 M02/M03 A3024 RMK AO2 SLP242 P0003 T10171033 $
KGHG - Marshfield, Massachusetts, USA
Distance from station: NE 20mi, 31km
Updated: 12/11/2019 10:55am
Light snow, Overcast
Light snow, Overcast
 Wind from WNW
Wind: WNW 3 mph , 6 km/h
Temperature: 30°F , -1°C
Dew Point: 30°F , -1°C
Humidity: 100%
Barometer: 30.23 inHg , 1023.7 hPa
Summary: Light Snow
Clouds: Overcast
Visibility: 1/2 mile , 0.8 km
Cloud details: Overcast 100 ft
2019/12/11 15:55 KGHG 111555Z AUTO 29003KT 1/2SM -SN OVC001 M01/M01 A3023 RMK AO2
 
KOWD - Norwood, Massachusetts, USA
Distance from station: NNW 24mi, 39km
Updated: 12/11/2019 10:58am
Light snow, Overcast
Light snow, Overcast
 Wind from W
Wind: W 6 mph , 9 km/h
Temperature: 32°F , 0°C
Wind Chill: 26°F , -3°C
Dew Point: 27°F , -3°C
Humidity: 80%
Barometer: 30.23 inHg , 1023.7 hPa
Summary: Light Snow
Clouds: Overcast
Visibility: 2 1/2 miles , 4 km
Cloud details: Overcast 2900 ft
2019/12/11 15:58 KOWD 111558Z 27005KT 2 1/2SM -SN OVC029 00/M03 A3023 RMK AO2 P0000 T00001033
KMQE - East Milton, Massachusetts, USA
Distance from station: NNW 25mi, 40km
Updated: 12/11/2019 10:51am

 Wind from WNW
Wind: WNW 9 mph , 15 km/h
Temperature: 27°F , -3°C
Wind Chill: 18°F , -8°C
Dew Point: 27°F , -3°C
Humidity: 100%
Barometer: 30.19 inHg , 1022.4 hPa
2019/12/11 15:51 KMQE 111551Z AUTO 29008KT M03/M03 A3019 RMK AO1 SLP242 P0001 T10281033
 
KFMH - Falmouth/Otis Ab, Massachusetts, USA
Distance from station: SE 27mi, 44km
Updated: 12/11/2019 10:45am
Light snow, Mostly cloudy
Light snow, Mostly cloudy
 Wind from NW
Wind: NW 6 mph , 9 km/h, Gust: 17 mph , 28 km/h
Temperature: 30°F , -1°C
Wind Chill: 24°F , -4°C
Dew Point: 28°F , -2°C
Humidity: 93%
Barometer: 30.23 inHg , 1023.7 hPa
Summary: Light Snow
Clouds: Mostly cloudy
Visibility: 1/2 mile , 0.8 km
Cloud details: Mostly cloudy 300 ft
2019/12/11 15:45 KFMH 111545Z 32005G15KT 1/2SM -SN BKN003 M01/M02 A3023
KPVD - Providence/Green, Rhode Island, USA
Distance from station: WSW 29mi, 47km
Updated: 12/11/2019 10:59am
Snow, Overcast
Snow, Overcast
 Wind from W
Wind: W 7 mph , 11 km/h
Temperature: 30°F , -1°C
Wind Chill: 23°F , -5°C
Dew Point: 25°F , -4°C
Humidity: 80%
Barometer: 30.26 inHg , 1024.7 hPa
Summary: Snow
Clouds: Overcast
Visibility: 1/2 mile , 0.8 km
Cloud details: Overcast 2800 ft
2019/12/11 15:59 KPVD 111559Z 28006KT 1/2SM R05/4500VP6000FT SN OVC028 M01/M04 A3026 RMK AO2 P0000 T10111039
 
KSFZ - Pawtucket, Rhode Island, USA
Distance from station: W 30mi, 48km
Updated: 12/11/2019 11:02am
Light snow, Mist, Overcast
Light snow, Mist, Overcast
 Wind from calm
Wind: Calm
Temperature: 28°F , -2°C
Dew Point: 27°F , -3°C
Humidity: 93%
Barometer: 30.22 inHg , 1023.4 hPa
Summary: Light snow, Mist
Clouds: Overcast
Visibility: 3 miles , 5 km
Cloud details: Few Clouds 2500 ft
Overcast 3400 ft
2019/12/11 16:02 KSFZ 111602Z AUTO 00000KT 3SM -SN BR FEW025 OVC034 M02/M03 A3022 RMK AO2 P0000 FZRANO
KUUU - Newport, Rhode Island, USA
Distance from station: SW 31mi, 50km
Updated: 12/11/2019 11:00am
Light snow, Mist, Overcast
Light snow, Mist, Overcast
 Wind from NW
Wind: NW 12 mph , 19 km/h
Temperature: 30°F , -1°C
Wind Chill: 20°F , -7°C
Dew Point: 27°F , -3°C
Humidity: 86%
Barometer: 30.25 inHg , 1024.4 hPa
Summary: Light snow, Mist
Clouds: Overcast
Visibility: 1 3/4 miles , 2.8 km
Cloud details: Few Clouds 700 ft
Mostly cloudy 1400 ft
Overcast 3100 ft
2019/12/11 16:00 KUUU 111600Z AUTO 31010KT 1 3/4SM -SN BR FEW007 BKN014 OVC031 M01/M03 A3025 RMK AO2 P0000 T10111033 $
 
KOQU - N. Kingston/Quon, Rhode Island, USA
Distance from station: SW 32mi, 52km
Updated: 12/11/2019 10:50am
Light snow, Mist, Overcast
Light snow, Mist, Overcast
 Wind from NNW
Wind: NNW 14 mph , 22 km/h
Temperature: 28°F , -2°C
Wind Chill: 17°F , -8°C
Dew Point: 28°F , -2°C
Humidity: 100%
Barometer: 30.26 inHg , 1024.7 hPa
Summary: Light snow, Mist
Clouds: Overcast
Visibility: 2 miles , 3 km
Cloud details: Mostly cloudy 900 ft
Overcast 1300 ft
2019/12/11 15:50 KOQU 111550Z 33012KT 2SM -SN BR BKN009 OVC013 M02/M02 A3026
KBOS - Boston, Massachusetts, USA
Distance from station: N 33mi, 54km
Updated: 12/11/2019 10:54am
Haze, Overcast
Haze, Overcast
 Wind from W
Wind: W 8 mph , 13 km/h
Temperature: 34°F , 1°C
Wind Chill: 27°F , -3°C
Dew Point: 21°F , -6°C
Humidity: 60%
Barometer: 30.24 inHg , 1024 hPa
Summary: Haze
Clouds: Overcast
Visibility: 6 miles , 10 km
Cloud details: Few Clouds 3500 ft
Mostly cloudy 4300 ft
Overcast 5000 ft
2019/12/11 15:54 KBOS 111554Z 28007KT 6SM HZ FEW035 BKN043 OVC050 01/M06 A3024 RMK AO2 SNE51 SLP238 P0000 T00061056
 
KHYA - Hyannis, Massachusetts, USA
Distance from station: ESE 37mi, 59km
Updated: 12/11/2019 10:56am
Snow, Fog, Overcast
Snow, Fog, Overcast
 Wind from NW
Wind: NW 8 mph , 13 km/h
Temperature: 32°F , 0°C
Wind Chill: 25°F , -4°C
Dew Point: 28°F , -2°C
Humidity: 87%
Barometer: 30.21 inHg , 1023 hPa
Summary: Snow, Fog
Clouds: Overcast
Visibility: 1/2 mile , 0.8 km
Cloud details: Overcast 700 ft
2019/12/11 15:56 KHYA 111556Z 31007KT 1/2SM SN FG VV007 00/M02 A3021 RMK AO2 SLP230 P0006 T00001017
KMVY - Marthas Vineyard, Massachusetts, USA
Distance from station: SSE 37mi, 60km
Updated: 12/11/2019 10:53am
Snow, Freezing, Fog, Overcast
Snow, Freezing, Fog, Overcast
 Wind from NNW
Wind: NNW 12 mph , 19 km/h
Temperature: 30°F , -1°C
Wind Chill: 20°F , -7°C
Dew Point: 28°F , -2°C
Humidity: 93%
Barometer: 30.24 inHg , 1024 hPa
Summary: Snow, Freezing, Fog
Clouds: Overcast
Visibility: 1/2 mile , 0.8 km
Cloud details: Overcast 900 ft
2019/12/11 15:53 KMVY 111553Z 34010KT 1/2SM R24/3000FT SN FZFG VV009 M01/M02 A3024 RMK AO2 SLP239 P0002 T10061017
 
KPVC - Provincetown, Massachusetts, USA
Distance from station: ENE 38mi, 61km
Updated: 12/11/2019 10:56am
Light snow, Mist, Overcast
Light snow, Mist, Overcast
 Wind from NW
Wind: NW 15 mph , 24 km/h
Temperature: 32°F , 0°C
Wind Chill: 22°F , -6°C
Dew Point: 30°F , -1°C
Humidity: 93%
Barometer: 30.23 inHg , 1023.7 hPa
Summary: Light snow, Mist
Clouds: Overcast
Visibility: 3/4 mile , 1.2 km
Cloud details: Overcast 600 ft
2019/12/11 15:56 KPVC 111556Z AUTO 32013KT 3/4SM -SN BR OVC006 00/M01 A3023 RMK AO2 CIG 004V010 SLP234 T00001006 FZRANO PNO $
KBED - Bedford, Massachusetts, USA
Distance from station: NNW 44mi, 72km
Updated: 12/11/2019 10:51am
Partly cloudy
Partly cloudy
 Wind from WSW
Wind: WSW 3 mph , 6 km/h
Temperature: 30°F , -1°C
Dew Point: 25°F , -4°C
Humidity: 80%
Barometer: 30.21 inHg , 1023 hPa
Clouds: Partly cloudy
Visibility: 10 miles , 16 km
Cloud details: Few Clouds 7500 ft
Partly cloudy 9000 ft
2019/12/11 15:51 KBED 111551Z 24003KT 10SM FEW075 SCT090 M01/M04 A3021 RMK AO2 SLP247 T10061039
 
KBVY - Beverly, Massachusetts, USA
Distance from station: 0 48mi, 77km
Updated: 12/11/2019 11:01am
Light snow, Mist, Overcast
Light snow, Mist, Overcast
 Wind from W
Wind: W 3 mph , 6 km/h
Temperature: 30°F , -1°C
Dew Point: 28°F , -2°C
Humidity: 93%
Barometer: 30.21 inHg , 1023 hPa
Summary: Light snow, Mist
Clouds: Overcast
Visibility: 5 miles , 8 km
Cloud details: Partly cloudy 1000 ft
Mostly cloudy 2800 ft
Overcast 4300 ft
2019/12/11 16:01 KBVY 111601Z 27003KT 5SM -SN BR SCT010 BKN028 OVC043 M01/M02 A3021 RMK AO2 P0000 T10061022
KCQX - Chatham, Massachusetts, USA
Distance from station: ESE 49mi, 80km
Updated: 12/11/2019 11:05am
Heavy snow, Overcast
Heavy snow, Overcast
 Wind from varies
Wind: varies 5 mph , 7 km/h
Barometer: 30.22 inHg , 1023.4 hPa
Summary: Heavy Snow
Clouds: Overcast
Visibility: 1/4 mile , 0.4 km
Cloud details: Overcast 500 ft
2019/12/11 16:05 KCQX 111605Z AUTO VRB04KT 1/4SM +SN VV005 A3022 RMK AO2 P0002 $